createdAt,value
2019-04-19T00:01:08.933Z,30.47
2019-04-19T00:03:36.881Z,29.10
2019-04-19T00:06:13.616Z,36.63
2019-04-19T00:08:49.493Z,36.33
2019-04-19T00:11:15.624Z,31.77
2019-04-19T00:13:36.723Z,32.60
2019-04-19T00:16:06.673Z,32.13
2019-04-19T00:18:37.826Z,33.10
2019-04-19T00:21:24.902Z,35.23
2019-04-19T00:23:40.614Z,40.30
2019-04-19T00:26:06.170Z,36.63
2019-04-19T00:28:41.914Z,32.03
2019-04-19T00:31:23.849Z,33.07
2019-04-19T00:33:41.468Z,40.13
2019-04-19T00:36:07.381Z,37.07
2019-04-19T00:38:49.342Z,35.53
2019-04-19T00:41:25.696Z,35.90
2019-04-19T00:43:56.259Z,31.30
2019-04-19T00:46:29.237Z,41.63
2019-04-19T00:48:55.096Z,33.63
2019-04-19T00:51:21.055Z,34.07
2019-04-19T00:53:55.617Z,31.80
2019-04-19T00:56:18.122Z,42.97
2019-04-19T00:58:50.231Z,34.57
2019-04-19T01:01:18.028Z,28.10
2019-04-19T01:03:46.267Z,33.57
2019-04-19T01:06:17.222Z,31.50
2019-04-19T01:08:56.361Z,37.73
2019-04-19T01:11:29.654Z,33.93
2019-04-19T01:14:01.446Z,34.57
2019-04-19T01:16:25.954Z,33.60
2019-04-19T01:18:54.008Z,34.67
2019-04-19T01:21:15.393Z,34.47
2019-04-19T01:23:48.071Z,36.90
2019-04-19T01:26:16.436Z,34.53
2019-04-19T01:28:51.303Z,31.93
2019-04-19T01:31:18.012Z,38.93
2019-04-19T01:33:46.413Z,34.40
2019-04-19T01:36:19.807Z,34.33
2019-04-19T01:38:50.476Z,35.30
2019-04-19T01:41:29.693Z,33.77
2019-04-19T01:44:02.225Z,33.77
2019-04-19T01:46:39.383Z,36.60
2019-04-19T01:49:05.667Z,38.37
2019-04-19T01:52:01.112Z,36.17
2019-04-19T01:54:32.404Z,35.43
2019-04-19T01:56:52.184Z,45.23
2019-04-19T01:59:16.059Z,34.30
2019-04-19T02:01:45.757Z,33.27
2019-04-19T02:04:20.761Z,35.60
2019-04-19T02:06:46.690Z,32.20
2019-04-19T02:09:27.127Z,34.80
2019-04-19T02:11:57.939Z,39.80
2019-04-19T02:14:26.144Z,36.97
2019-04-19T02:16:57.681Z,34.67
2019-04-19T02:19:26.504Z,36.07
2019-04-19T02:21:53.995Z,35.27
2019-04-19T02:24:30.604Z,35.40
2019-04-19T02:26:59.623Z,35.97
2019-04-19T02:29:27.061Z,37.47
2019-04-19T02:37:19.092Z,39.20
2019-04-19T02:39:50.597Z,33.20
2019-04-19T02:42:33.212Z,32.37
2019-04-19T02:47:38.455Z,33.13
2019-04-19T02:49:53.521Z,34.73
2019-04-19T02:52:29.691Z,35.07
2019-04-19T03:07:26.106Z,35.80
2019-04-19T03:09:55.548Z,34.60
2019-04-19T03:12:42.620Z,41.03
2019-04-19T03:15:11.663Z,32.43
2019-04-19T03:17:44.950Z,32.80
2019-04-19T03:20:15.219Z,35.93
2019-04-19T03:22:40.986Z,35.10
2019-04-19T03:25:14.534Z,35.70
2019-04-19T03:27:40.920Z,31.77
2019-04-19T03:30:38.215Z,44.40
2019-04-19T03:35:41.347Z,33.63
2019-04-19T03:38:06.114Z,32.07
2019-04-19T03:40:42.338Z,39.93
2019-04-19T03:43:23.311Z,40.70
2019-04-19T03:45:48.851Z,35.07
2019-04-19T03:48:16.082Z,37.70
2019-04-19T03:50:43.879Z,33.20
2019-04-19T03:53:15.327Z,34.93
2019-04-19T03:55:43.168Z,33.30
2019-04-19T03:58:03.253Z,32.30
2019-04-19T04:00:26.095Z,43.87
2019-04-19T04:02:54.693Z,39.80
2019-04-19T04:05:24.422Z,34.27
2019-04-19T04:08:02.349Z,38.37
2019-04-19T04:10:45.529Z,39.97
2019-04-19T04:13:32.641Z,43.73
2019-04-19T04:16:05.619Z,37.30
2019-04-19T04:18:23.746Z,39.50
2019-04-19T04:20:55.725Z,43.30
2019-04-19T04:23:29.967Z,46.37
2019-04-19T04:26:01.393Z,33.13
2019-04-19T04:28:34.077Z,37.03
2019-04-19T04:31:05.896Z,36.70
2019-04-19T04:33:36.035Z,36.67
2019-04-19T04:36:16.719Z,34.60
2019-04-19T04:38:31.086Z,38.90
2019-04-19T04:40:54.782Z,40.40
2019-04-19T04:43:35.687Z,35.43
2019-04-19T04:46:33.360Z,37.80
2019-04-19T04:48:59.502Z,35.43
2019-04-19T04:51:39.057Z,39.50
2019-04-19T04:54:02.039Z,34.70
2019-04-19T04:56:41.900Z,39.63
2019-04-19T04:59:09.838Z,35.60
2019-04-19T05:01:43.885Z,35.77
2019-04-19T05:04:18.966Z,32.53
2019-04-19T05:06:54.296Z,34.47
2019-04-19T05:09:25.063Z,34.40
2019-04-19T05:12:01.324Z,36.57
2019-04-19T05:14:24.429Z,36.77
2019-04-19T05:17:06.812Z,43.63
2019-04-19T05:19:27.416Z,35.17
2019-04-19T05:21:52.596Z,39.73
2019-04-19T05:24:27.473Z,35.50
2019-04-19T05:26:57.214Z,38.83
2019-04-19T05:29:17.546Z,36.70
2019-04-19T05:31:43.437Z,33.50
2019-04-19T05:34:28.968Z,31.60
2019-04-19T05:36:54.675Z,40.50
2019-04-19T05:39:39.605Z,35.87
2019-04-19T05:42:01.422Z,37.80
2019-04-19T05:44:40.672Z,28.30
2019-04-19T05:47:11.941Z,33.27
2019-04-19T05:49:39.025Z,35.50
2019-04-19T05:52:09.220Z,32.40
2019-04-19T05:54:21.972Z,37.77
2019-04-19T05:56:55.516Z,42.20
2019-04-19T05:59:34.286Z,35.90
2019-04-19T06:02:05.507Z,35.00
2019-04-19T06:04:45.684Z,30.37
2019-04-19T06:07:09.539Z,34.60
2019-04-19T06:09:21.892Z,34.00
2019-04-19T06:11:51.416Z,37.30
2019-04-19T06:14:49.441Z,36.23
2019-04-19T06:17:24.875Z,39.30
2019-04-19T06:19:50.441Z,36.83
2019-04-19T06:22:27.017Z,38.23
2019-04-19T06:24:57.059Z,37.60
2019-04-19T06:27:35.628Z,34.80
2019-04-19T06:30:06.006Z,33.37
2019-04-19T06:32:36.203Z,29.13
2019-04-19T06:34:55.213Z,36.53
2019-04-19T06:37:17.022Z,37.10
2019-04-19T06:39:43.642Z,38.20
2019-04-19T06:42:14.955Z,40.33
2019-04-19T06:45:05.420Z,36.83
2019-04-19T06:47:21.856Z,37.30
2019-04-19T06:49:43.696Z,36.37
2019-04-19T06:52:18.524Z,36.57
2019-04-19T06:54:44.804Z,34.83
2019-04-19T06:57:23.366Z,36.40
2019-04-19T06:59:57.893Z,31.13
2019-04-19T07:02:13.760Z,40.53
2019-04-19T07:05:18.431Z,35.80
2019-04-19T07:07:59.522Z,45.93
2019-04-19T07:10:32.239Z,42.00
2019-04-19T07:12:51.334Z,37.53
2019-04-19T07:15:30.140Z,39.67
2019-04-19T07:17:50.156Z,33.77
2019-04-19T07:20:22.656Z,37.80
2019-04-19T07:22:53.038Z,33.70
2019-04-19T07:25:32.361Z,36.90
2019-04-19T07:27:47.748Z,36.53
2019-04-19T07:30:10.234Z,39.43
2019-04-19T07:32:44.370Z,37.30
2019-04-19T07:35:29.662Z,33.90
2019-04-19T07:37:58.808Z,35.30
2019-04-19T07:40:33.446Z,40.67
2019-04-19T07:42:58.117Z,38.90
2019-04-19T07:45:24.028Z,34.33
2019-04-19T07:47:56.620Z,39.03
2019-04-19T07:50:24.427Z,35.07
2019-04-19T07:52:55.601Z,35.20
2019-04-19T07:55:19.222Z,37.80
2019-04-19T07:58:24.920Z,32.47
2019-04-19T08:00:54.016Z,37.80
2019-04-19T08:03:18.841Z,34.20
2019-04-19T08:05:46.438Z,32.50
2019-04-19T08:08:45.178Z,35.37
2019-04-19T08:18:24.272Z,35.77
2019-04-19T08:28:09.701Z,34.20
2019-04-19T08:30:32.940Z,42.50
2019-04-19T08:32:53.546Z,35.80
2019-04-19T08:35:23.447Z,33.13
2019-04-19T08:37:55.308Z,35.73
2019-04-19T08:40:44.169Z,36.40
2019-04-19T08:43:12.546Z,34.40
2019-04-19T08:45:40.836Z,36.63
2019-04-19T08:48:16.941Z,45.47
2019-04-19T08:50:48.834Z,36.97
2019-04-19T08:53:30.576Z,33.83
2019-04-19T08:56:01.762Z,36.87
2019-04-19T08:58:30.539Z,32.87
2019-04-19T09:01:09.829Z,34.67
2019-04-19T09:03:39.042Z,36.93
2019-04-19T09:06:34.888Z,37.17
2019-04-19T09:08:32.562Z,31.60
2019-04-19T09:11:01.446Z,31.00
2019-04-19T09:13:33.936Z,33.90
2019-04-19T09:16:01.206Z,38.20
2019-04-19T09:18:39.178Z,33.57
2019-04-19T09:21:04.452Z,32.83
2019-04-19T09:23:28.691Z,35.33
2019-04-19T09:26:03.207Z,36.03
2019-04-19T09:28:44.685Z,33.90
2019-04-19T09:31:09.593Z,38.47
2019-04-19T09:33:30.612Z,32.27
2019-04-19T09:35:58.827Z,33.17
2019-04-19T09:38:41.140Z,40.20
2019-04-19T09:40:59.615Z,40.60
2019-04-19T09:43:35.791Z,38.87
2019-04-19T09:45:53.801Z,33.87
2019-04-19T09:48:42.098Z,34.63
2019-04-19T09:51:07.534Z,30.17
2019-04-19T09:53:48.978Z,32.53
2019-04-19T09:56:11.966Z,33.40
2019-04-19T09:58:38.834Z,32.37
2019-04-19T10:00:55.842Z,37.70
2019-04-19T10:03:34.487Z,35.60
2019-04-19T10:05:56.850Z,34.83
2019-04-19T10:08:27.650Z,41.53
2019-04-19T10:10:56.791Z,29.10
2019-04-19T10:13:30.020Z,43.20
2019-04-19T10:16:18.686Z,35.33
2019-04-19T10:18:53.948Z,36.90
2019-04-19T10:21:39.205Z,30.93
2019-04-19T10:24:16.334Z,31.63
2019-04-19T10:26:48.367Z,35.00
2019-04-19T10:29:28.128Z,38.07
2019-04-19T10:31:53.557Z,30.37
2019-04-19T10:34:22.644Z,30.80
2019-04-19T10:36:53.359Z,34.47
2019-04-19T10:39:23.762Z,33.87
2019-04-19T10:41:52.384Z,31.03
2019-04-19T10:44:23.701Z,26.77
2019-04-19T10:46:51.501Z,29.80
2019-04-19T10:49:30.790Z,31.33
2019-04-19T10:51:58.481Z,30.67
2019-04-19T10:54:27.120Z,32.27
2019-04-19T10:56:58.516Z,28.13
2019-04-19T10:59:32.278Z,26.97
2019-04-19T11:02:02.116Z,31.93
2019-04-19T11:04:31.093Z,32.30
2019-04-19T11:07:00.983Z,35.07
2019-04-19T11:09:29.405Z,31.60
2019-04-19T11:11:57.918Z,31.87
2019-04-19T11:14:26.348Z,30.73
2019-04-19T11:16:55.696Z,30.17
2019-04-19T11:19:43.415Z,31.80
2019-04-19T11:21:55.902Z,28.53
2019-04-19T11:24:25.622Z,33.37
2019-04-19T11:26:55.065Z,33.63
2019-04-19T11:29:23.954Z,29.80
2019-04-19T11:31:54.291Z,31.03
2019-04-19T11:34:23.102Z,28.03
2019-04-19T11:36:51.607Z,32.83
2019-04-19T11:39:21.056Z,34.83
2019-04-19T11:41:53.335Z,31.27
2019-04-19T11:44:25.737Z,37.77
2019-04-19T11:46:52.098Z,27.77
2019-04-19T11:49:27.555Z,26.87
2019-04-19T11:51:50.971Z,28.73
2019-04-19T11:54:20.712Z,28.67
2019-04-19T11:56:54.998Z,27.60
2019-04-19T11:59:35.308Z,26.30
2019-04-19T12:01:54.687Z,29.37
2019-04-19T12:04:23.978Z,27.30
2019-04-19T12:06:52.619Z,28.30
2019-04-19T12:09:21.044Z,28.40
2019-04-19T12:11:50.568Z,25.43
2019-04-19T12:14:19.628Z,28.33
2019-04-19T12:16:48.919Z,32.37
2019-04-19T12:19:18.271Z,27.63
2019-04-19T12:21:47.602Z,25.00
2019-04-19T12:24:17.066Z,27.40
2019-04-19T12:26:46.471Z,27.40
2019-04-19T12:29:26.276Z,24.57
2019-04-19T12:31:47.444Z,23.80
2019-04-19T12:34:16.185Z,28.40
2019-04-19T12:36:44.816Z,24.83
2019-04-19T12:39:13.244Z,24.20
2019-04-19T12:41:43.946Z,28.20
2019-04-19T12:44:13.254Z,27.17
2019-04-19T12:46:43.141Z,25.37
2019-04-19T12:49:12.266Z,25.20
2019-04-19T12:51:41.974Z,24.77
2019-04-19T12:54:11.985Z,24.77
2019-04-19T12:56:40.667Z,26.13
2019-04-19T12:59:09.321Z,24.10
2019-04-19T13:01:48.648Z,26.70
2019-04-19T13:04:18.723Z,26.50
2019-04-19T13:06:54.951Z,31.20
2019-04-19T13:09:24.399Z,24.87
2019-04-19T13:11:52.877Z,24.80
2019-04-19T13:14:21.793Z,24.53
2019-04-19T13:16:50.518Z,25.43
2019-04-19T13:19:20.553Z,23.57
2019-04-19T13:21:50.284Z,23.40
2019-04-19T13:24:18.924Z,23.53
2019-04-19T13:26:47.501Z,24.33
2019-04-19T13:29:16.097Z,23.87
2019-04-19T13:31:44.971Z,24.03
2019-04-19T13:34:13.737Z,26.17
2019-04-19T13:37:00.778Z,28.67
2019-04-19T13:39:32.003Z,24.13
2019-04-19T13:42:10.932Z,20.83
2019-04-19T13:44:40.799Z,22.37
2019-04-19T13:47:10.883Z,21.70
2019-04-19T13:49:40.266Z,18.77
2019-04-19T13:52:08.930Z,21.00
2019-04-19T13:54:38.746Z,28.10
2019-04-19T13:57:07.952Z,21.27
2019-04-19T13:59:45.810Z,19.77
2019-04-19T14:02:06.854Z,19.17
2019-04-19T14:04:35.540Z,17.00
2019-04-19T14:07:04.524Z,15.90
2019-04-19T14:09:33.698Z,19.23
2019-04-19T14:12:03.227Z,15.43
2019-04-19T14:14:32.800Z,14.90
2019-04-19T14:17:01.923Z,21.03
2019-04-19T14:19:31.237Z,17.97
2019-04-19T14:22:00.658Z,17.60
2019-04-19T14:24:29.343Z,14.60
2019-04-19T14:26:59.199Z,13.87
2019-04-19T14:29:28.003Z,13.13
2019-04-19T14:31:56.495Z,13.43
2019-04-19T14:34:24.907Z,12.70
2019-04-19T14:36:53.948Z,13.20
2019-04-19T14:39:22.702Z,13.00
2019-04-19T14:41:51.690Z,12.07
2019-04-19T14:44:21.748Z,13.67
2019-04-19T14:46:50.573Z,16.50
2019-04-19T14:49:19.080Z,13.53
2019-04-19T14:51:47.843Z,16.80
2019-04-19T14:54:17.124Z,16.43
2019-04-19T14:56:45.752Z,14.37
2019-04-19T14:59:14.303Z,12.93
2019-04-19T15:01:44.673Z,11.60
2019-04-19T15:04:17.463Z,15.90
2019-04-19T15:06:46.101Z,16.13
2019-04-19T15:09:15.303Z,12.70
2019-04-19T15:11:43.820Z,11.80
2019-04-19T15:14:12.556Z,13.93
2019-04-19T15:16:41.710Z,14.20
2019-04-19T15:19:11.381Z,12.37
2019-04-19T15:21:59.167Z,12.70
2019-04-19T15:24:28.541Z,12.40
2019-04-19T15:26:57.260Z,17.13
2019-04-19T15:29:27.085Z,13.30
2019-04-19T15:31:56.678Z,18.17
2019-04-19T15:34:25.445Z,13.70
2019-04-19T15:36:53.869Z,14.10
2019-04-19T15:39:22.305Z,12.80
2019-04-19T15:41:53.803Z,18.77
2019-04-19T15:44:22.289Z,16.23
2019-04-19T15:46:51.587Z,21.97
2019-04-19T15:49:20.378Z,15.17
2019-04-19T15:51:49.914Z,13.80
2019-04-19T15:54:18.485Z,17.63
2019-04-19T15:56:47.859Z,14.17
2019-04-19T15:59:17.030Z,20.10
2019-04-19T16:01:53.382Z,13.47
2019-04-19T16:04:28.453Z,16.13
2019-04-19T16:07:01.963Z,14.57
2019-04-19T16:09:33.339Z,12.97
2019-04-19T16:12:03.487Z,16.50
2019-04-19T16:14:32.314Z,17.20
2019-04-19T16:17:00.969Z,15.10
2019-04-19T16:19:30.237Z,15.57
2019-04-19T16:22:00.910Z,19.13
2019-04-19T16:24:29.316Z,18.77
2019-04-19T16:27:00.286Z,16.80
2019-04-19T16:29:37.562Z,16.80
2019-04-19T16:31:58.759Z,18.27
2019-04-19T16:34:27.439Z,22.40
2019-04-19T16:36:56.300Z,19.60
2019-04-19T16:39:27.698Z,21.60
2019-04-19T16:41:55.188Z,16.90
2019-04-19T16:44:23.803Z,25.43
2019-04-19T16:46:52.977Z,26.67
2019-04-19T16:49:22.702Z,19.73
2019-04-19T16:51:55.566Z,17.67
2019-04-19T16:54:22.551Z,24.23
2019-04-19T16:56:51.462Z,21.80
2019-04-19T16:59:21.728Z,16.50
2019-04-19T17:01:50.783Z,19.13
2019-04-19T17:04:19.778Z,28.00
2019-04-19T17:06:48.873Z,15.90
2019-04-19T17:09:17.649Z,17.27
2019-04-19T17:11:47.207Z,19.43
2019-04-19T17:14:16.903Z,16.93
2019-04-19T17:16:50.674Z,17.90
2019-04-19T17:19:21.384Z,17.30
2019-04-19T17:21:57.172Z,27.80
2019-04-19T17:24:20.895Z,18.00
2019-04-19T17:26:49.531Z,18.70
2019-04-19T17:29:19.052Z,21.10
2019-04-19T17:31:47.982Z,20.60
2019-04-19T17:34:16.613Z,19.27
2019-04-19T17:36:46.311Z,26.37
2019-04-19T17:39:14.987Z,19.20
2019-04-19T17:41:43.538Z,17.57
2019-04-19T17:44:13.446Z,19.97
2019-04-19T17:46:42.587Z,28.73
2019-04-19T17:49:11.180Z,21.00
2019-04-19T17:51:39.899Z,26.87
2019-04-19T17:54:09.724Z,23.13
2019-04-19T17:56:39.527Z,30.37
2019-04-19T17:59:08.156Z,27.30
2019-04-19T18:01:37.796Z,27.17
2019-04-19T18:04:07.102Z,25.20
2019-04-19T18:06:36.367Z,28.27
2019-04-19T18:09:12.567Z,21.13
2019-04-19T18:11:38.487Z,37.17
2019-04-19T18:14:07.426Z,26.83
2019-04-19T18:16:36.568Z,25.50
2019-04-19T18:19:05.496Z,35.10
2019-04-19T18:21:37.496Z,29.30
2019-04-19T18:24:11.587Z,51.37
2019-04-19T18:26:36.606Z,8.70
2019-04-19T18:29:07.618Z,21.17
2019-04-19T18:31:40.750Z,4.03
2019-04-19T18:34:11.174Z,3.67
2019-04-19T18:36:41.875Z,10.10
2019-04-19T18:39:27.383Z,8.10
2019-04-19T18:41:57.046Z,23.23
2019-04-19T18:44:37.123Z,4.60
2019-04-19T18:46:56.661Z,4.83
2019-04-19T18:49:25.427Z,4.93
2019-04-19T18:51:54.104Z,8.90
2019-04-19T18:54:28.596Z,11.83
2019-04-19T18:56:56.075Z,7.03
2019-04-19T18:59:25.595Z,11.83
2019-04-19T19:01:53.438Z,16.20
2019-04-19T19:04:25.856Z,7.40
2019-04-19T19:06:52.848Z,4.13
2019-04-19T19:09:33.223Z,5.97
2019-04-19T19:12:00.836Z,5.00
2019-04-19T19:14:43.558Z,4.10
2019-04-19T19:17:16.362Z,5.17
2019-04-19T19:19:42.002Z,8.63
2019-04-19T19:22:12.828Z,7.73
2019-04-19T19:25:01.211Z,3.97
2019-04-19T19:27:17.472Z,10.83
2019-04-19T19:29:43.648Z,8.30
2019-04-19T19:32:15.841Z,7.50
2019-04-19T19:34:43.799Z,3.97
2019-04-19T19:37:18.144Z,6.13
2019-04-19T19:39:53.943Z,14.10
2019-04-19T19:42:40.024Z,4.20
2019-04-19T19:45:02.909Z,4.97
2019-04-19T19:48:11.790Z,6.23
2019-04-19T19:50:46.664Z,12.07
2019-04-19T19:53:06.082Z,7.63
2019-04-19T19:55:26.493Z,12.70
2019-04-19T19:57:55.361Z,11.43
2019-04-19T20:00:24.304Z,4.67
2019-04-19T20:02:51.159Z,4.47
2019-04-19T20:05:22.210Z,12.00
2019-04-19T20:07:46.193Z,9.60
2019-04-19T20:10:15.858Z,8.90
2019-04-19T20:12:50.885Z,4.80
2019-04-19T20:15:15.191Z,6.67
2019-04-19T20:17:51.096Z,8.30
2019-04-19T20:20:16.358Z,5.33
2019-04-19T20:22:47.577Z,8.57
2019-04-19T20:25:28.870Z,10.10
2019-04-19T20:27:51.324Z,6.10
2019-04-19T20:30:16.574Z,12.00
2019-04-19T20:32:52.914Z,11.27
2019-04-19T20:35:19.581Z,7.07
2019-04-19T20:37:47.508Z,7.70
2019-04-19T20:40:18.912Z,9.53
2019-04-19T20:43:09.474Z,6.90
2019-04-19T20:45:28.827Z,6.30
2019-04-19T20:47:51.336Z,8.53
2019-04-19T20:50:25.560Z,12.90
2019-04-19T20:53:05.934Z,9.13
2019-04-19T20:55:41.269Z,7.43
2019-04-19T20:58:09.353Z,11.23
2019-04-19T21:00:35.036Z,12.57
2019-04-19T21:03:03.854Z,10.57
2019-04-19T21:05:35.782Z,11.07
2019-04-19T21:08:05.666Z,11.00
2019-04-19T21:10:32.966Z,12.33
2019-04-19T21:13:05.568Z,18.63
2019-04-19T21:15:35.445Z,11.10
2019-04-19T21:18:01.796Z,14.53
2019-04-19T21:20:31.222Z,14.33
2019-04-19T21:23:06.005Z,9.87
2019-04-19T21:25:38.817Z,13.00
2019-04-19T21:28:03.181Z,11.77
2019-04-19T21:30:31.359Z,14.30
2019-04-19T21:33:04.750Z,17.17
2019-04-19T21:35:32.277Z,14.20
2019-04-19T21:38:07.114Z,13.10
2019-04-19T21:40:36.188Z,11.50
2019-04-19T21:43:05.423Z,15.73
2019-04-19T21:45:37.834Z,13.53
2019-04-19T21:48:01.284Z,14.80
2019-04-19T21:50:36.976Z,16.23
2019-04-19T21:53:04.104Z,13.67
2019-04-19T21:55:35.671Z,13.20
2019-04-19T21:58:06.950Z,18.27
2019-04-19T22:00:39.007Z,17.83
2019-04-19T22:03:13.969Z,15.47
2019-04-19T22:05:39.154Z,17.97
2019-04-19T22:08:08.308Z,14.07
2019-04-19T22:10:40.395Z,16.30
2019-04-19T22:13:08.362Z,15.10
2019-04-19T22:15:44.245Z,16.43
2019-04-19T22:18:08.371Z,18.27
2019-04-19T22:20:38.538Z,15.43
2019-04-19T22:23:10.874Z,15.70
2019-04-19T22:25:48.764Z,20.87
2019-04-19T22:28:07.793Z,15.13
2019-04-19T22:30:42.228Z,16.27
2019-04-19T22:33:09.251Z,14.20
2019-04-19T22:35:37.417Z,15.10
2019-04-19T22:38:11.161Z,16.60
2019-04-19T22:40:36.641Z,22.67
2019-04-19T22:43:08.678Z,15.20
2019-04-19T22:45:36.925Z,17.73
2019-04-19T22:48:13.161Z,29.00
2019-04-19T22:50:37.627Z,20.30
2019-04-19T22:53:05.877Z,19.33
2019-04-19T22:55:45.129Z,21.67
2019-04-19T22:58:05.917Z,26.43
2019-04-19T23:00:40.379Z,16.53
2019-04-19T23:03:14.275Z,20.63
2019-04-19T23:05:43.585Z,17.13
2019-04-19T23:08:10.788Z,14.90
2019-04-19T23:10:50.072Z,16.20
2019-04-19T23:13:13.623Z,21.90
2019-04-19T23:15:43.422Z,14.80
2019-04-19T23:18:16.668Z,21.33
2019-04-19T23:20:43.354Z,14.67
2019-04-19T23:23:19.852Z,23.60
2019-04-19T23:25:46.547Z,18.60
2019-04-19T23:28:19.898Z,15.13
2019-04-19T23:31:08.231Z,16.67
2019-04-19T23:33:32.329Z,17.67
2019-04-19T23:36:03.871Z,21.33
2019-04-19T23:38:33.001Z,14.00
2019-04-19T23:41:01.437Z,16.90
2019-04-19T23:43:36.013Z,16.10
2019-04-19T23:46:01.187Z,16.40
2019-04-19T23:48:31.990Z,17.67
2019-04-19T23:51:00.094Z,24.43
2019-04-19T23:53:34.202Z,18.23
2019-04-19T23:56:00.338Z,25.17
2019-04-19T23:58:34.067Z,16.40
